Time;durP1;ratioP1;P1;durP2;ratioP2;P2;SDS_P1;SDS_P2;PMS_P1;PMS_P2;Temp;Humidity;BMP_temperature;BMP_pressure;BME280_temperature;BME280_humidity;BME280_pressure;Samples;Min_cycle;Max_cycle;Signal;HPM_P1;HPM_P2
2022/08/20 00:00:07;;;;;;;;;;;;;;;20.49;83.71;94837.47;5156533;27;2000;-51
2022/08/20 00:02:38;;;;;;;;;;;;;;;20.60;84.18;94833.16;5156415;27;1012;-51
2022/08/20 00:05:04;;;;;;;;;;;;;;;20.72;83.64;94836.75;5155202;27;1055;-51
2022/08/20 00:07:30;;;;;;;;;;;;;;;20.80;82.98;94839.13;5156535;27;972;-51
2022/08/20 00:09:56;;;;;;;;;;;;;;;20.83;82.62;94840.53;5156576;27;1205;-51
2022/08/20 00:12:22;;;;;;;;;;;;;;;20.56;82.85;94837.34;5156150;27;1095;-51
2022/08/20 00:14:48;;;;;;;;;;;;;;;20.35;84.20;94834.09;5156402;27;1050;-51
2022/08/20 00:17:14;;;;;;;;;;;;;;;20.42;84.58;94831.28;5155957;27;1055;-51
2022/08/20 00:19:40;;;;;;;;;;;;;;;20.51;84.00;94829.06;5156426;27;1914;-51
2022/08/20 00:22:06;;;;;;;;;;;;;;;20.54;83.63;94834.88;5156114;27;999;-51
2022/08/20 00:24:33;;;;;;;;;;;;;;;20.35;84.26;94835.97;5156333;27;1035;-50
2022/08/20 00:26:59;;;;;;;;;;;;;;;20.24;84.88;94841.13;5156040;27;948;-51
2022/08/20 00:29:25;;;;;;;;;;;;;;;20.24;84.85;94834.88;5155931;27;1020;-51
2022/08/20 00:31:51;;;;;;;;;;;;;;;20.24;84.62;94841.13;5155808;27;960;-51
2022/08/20 00:34:17;;;;;;;;;;;;;;;20.21;84.97;94844.31;5156074;27;956;-51
2022/08/20 00:36:43;;;;;;;;;;;;;;;20.26;84.23;94841.75;5155686;27;1059;-51
2022/08/20 00:39:09;;;;;;;;;;;;;;;20.18;84.66;94847.47;5155873;27;1921;-51
2022/08/20 00:41:35;;;;;;;;;;;;;;;20.11;84.85;94848.59;5155727;27;1003;-51
2022/08/20 00:44:12;;;;;;;;;;;;;;;20.13;84.75;94850.06;5148960;27;1239;-51
2022/08/20 00:46:39;;;;;;;;;;;;;;;20.24;84.64;94845.72;5134821;27;960;-51
2022/08/20 00:49:07;;;;;;;;;;;;;;;20.13;84.68;94850.06;5135315;27;965;-51
2022/08/20 00:51:59;;;;;;;;;;;;;;;20.06;84.91;94838.44;5134692;27;964;-51
2022/08/20 00:54:27;;;;;;;;;;;;;;;20.13;84.56;94832.91;5130212;27;1607;-51
2022/08/20 00:56:56;;;;;;;;;;;;;;;20.16;84.22;94838.72;5134445;27;1227;-51
2022/08/20 00:59:26;;;;;;;;;;;;;;;20.29;83.72;94838.53;5134852;27;1992;-51
2022/08/20 01:01:52;;;;;;;;;;;;;;;20.21;84.11;94840.78;5134754;27;1028;-51
2022/08/20 01:04:19;;;;;;;;;;;;;;;19.92;85.33;94837.78;5134752;27;973;-51
2022/08/20 01:06:47;;;;;;;;;;;;;;;19.94;85.42;94838.38;5134600;27;972;-51
2022/08/20 01:09:13;;;;;;;;;;;;;;;19.87;85.80;94834.91;5135036;27;1055;-51
2022/08/20 01:11:39;;;;;;;;;;;;;;;19.84;86.35;94836.22;5134341;27;1016;-51
2022/08/20 01:14:54;;;;;;;;;;;;;;;19.85;86.06;94837.03;5134690;27;1047;-51
2022/08/20 01:17:03;;;;;;;;;;;;;;;19.92;85.49;94832.34;5125767;27;1534;-51
2022/08/20 01:19:41;;;;;;;;;;;;;;;19.96;85.03;94832.75;5134503;27;1992;-51
2022/08/20 01:24:56;;;;;;;;;;;;;;;19.96;84.72;94828.13;5134450;27;1040;-51
2022/08/20 01:27:23;;;;;;;;;;;;;;;19.83;85.17;94833.72;5134114;27;1020;-51
2022/08/20 01:29:50;;;;;;;;;;;;;;;19.70;85.88;94835.47;5134450;27;969;-51
2022/08/20 01:32:15;;;;;;;;;;;;;;;19.60;86.52;94826.22;5134056;27;1243;-51
2022/08/20 01:34:42;;;;;;;;;;;;;;;19.55;86.86;94829.59;5134226;27;988;-50
2022/08/20 01:37:08;;;;;;;;;;;;;;;19.68;86.04;94826.75;5134227;27;957;-51
2022/08/20 01:39:34;;;;;;;;;;;;;;;19.86;85.49;94836.81;5134101;28;1909;-51
2022/08/20 01:42:19;;;;;;;;;;;;;;;19.80;85.71;94840.41;5134168;28;1047;-51
2022/08/20 01:44:46;;;;;;;;;;;;;;;19.77;86.13;94837.31;5147567;27;1164;-51
2022/08/20 01:47:20;;;;;;;;;;;;;;;19.77;85.92;94842.72;5154625;27;977;-51
2022/08/20 01:49:49;;;;;;;;;;;;;;;19.77;85.66;94843.59;5155118;27;933;-51
2022/08/20 01:52:27;;;;;;;;;;;;;;;19.69;85.47;94833.84;5154710;27;1055;-51
2022/08/20 01:54:53;;;;;;;;;;;;;;;19.48;86.32;94831.53;5154717;27;1900;-51
2022/08/20 01:57:25;;;;;;;;;;;;;;;19.44;86.77;94835.75;5154318;27;1083;-50
2022/08/20 01:59:52;;;;;;;;;;;;;;;19.55;85.86;94826.06;5154652;27;1992;-51
2022/08/20 02:02:18;;;;;;;;;;;;;;;19.46;86.64;94828.22;5154775;27;1003;-51
2022/08/20 02:04:44;;;;;;;;;;;;;;;19.31;87.21;94817.72;5154843;27;1063;-51
2022/08/20 02:07:15;;;;;;;;;;;;;;;19.34;86.90;94813.78;5155048;27;993;-51
2022/08/20 02:09:42;;;;;;;;;;;;;;;19.56;85.50;94817.72;5154494;27;1871;-51
2022/08/20 02:12:08;;;;;;;;;;;;;;;19.59;86.05;94816.41;5155053;27;1016;-51
2022/08/20 02:14:38;;;;;;;;;;;;;;;19.42;86.51;94822.41;5154677;27;1031;-51
2022/08/20 02:17:05;;;;;;;;;;;;;;;19.27;87.61;94819.25;5154683;27;963;-51
2022/08/20 02:19:39;;;;;;;;;;;;;;;19.20;87.70;94818.47;5154438;27;1909;-51
2022/08/20 02:22:15;;;;;;;;;;;;;;;19.17;88.09;94818.94;5154534;27;1008;-51
2022/08/20 02:24:42;;;;;;;;;;;;;;;19.15;87.93;94813.72;5154307;27;1044;-51
2022/08/20 02:27:08;;;;;;;;;;;;;;;19.19;87.76;94817.66;5154646;27;1029;-51
2022/08/20 02:29:34;;;;;;;;;;;;;;;19.20;88.02;94813.91;5157643;27;1036;-51
2022/08/20 02:32:01;;;;;;;;;;;;;;;19.14;88.34;94819.38;5158370;27;1096;-51
2022/08/20 02:34:27;;;;;;;;;;;;;;;19.19;88.06;94820.34;5158323;27;1019;-51
2022/08/20 02:36:53;;;;;;;;;;;;;;;19.22;87.69;94827.22;5158407;27;945;-51
2022/08/20 02:39:19;;;;;;;;;;;;;;;19.20;88.27;94822.03;5157920;27;1905;-51
2022/08/20 02:41:45;;;;;;;;;;;;;;;19.19;87.68;94819.53;5158162;27;1036;-51
2022/08/20 02:44:11;;;;;;;;;;;;;;;19.09;88.22;94817.34;5149958;27;1153;-51
2022/08/20 02:46:37;;;;;;;;;;;;;;;19.06;88.55;94820.47;5137510;27;1075;-50
2022/08/20 02:49:03;;;;;;;;;;;;;;;19.07;88.29;94822.16;5137172;27;1044;-51
2022/08/20 02:51:30;;;;;;;;;;;;;;;19.09;88.37;94817.34;5137378;27;1059;-51
2022/08/20 02:53:55;;;;;;;;;;;;;;;19.04;88.17;94826.13;5137006;27;1037;-51
2022/08/20 02:56:21;;;;;;;;;;;;;;;18.93;88.53;94829.53;5136871;27;1228;-51
2022/08/20 02:58:47;;;;;;;;;;;;;;;18.94;88.67;94833.09;5137114;27;1991;-51
2022/08/20 03:01:15;;;;;;;;;;;;;;;19.03;88.33;94832.59;5137179;27;1031;-51
2022/08/20 03:03:42;;;;;;;;;;;;;;;19.09;87.90;94830.88;5136954;27;945;-51
2022/08/20 03:06:09;;;;;;;;;;;;;;;19.23;87.48;94829.69;5136892;27;1016;-51
2022/08/20 03:08:35;;;;;;;;;;;;;;;19.16;87.54;94830.81;5136782;27;965;-51
2022/08/20 03:11:02;;;;;;;;;;;;;;;19.03;88.23;94837.19;5136889;27;1075;-51
2022/08/20 03:13:28;;;;;;;;;;;;;;;18.97;88.59;94835.34;5137208;27;1061;-51
2022/08/20 03:15:57;;;;;;;;;;;;;;;19.08;87.89;94838.19;5136795;27;1127;-51
2022/08/20 03:18:24;;;;;;;;;;;;;;;19.16;87.74;94833.53;5136730;27;1025;-51
2022/08/20 03:20:50;;;;;;;;;;;;;;;19.17;87.78;94835.19;5136542;27;1909;-51
2022/08/20 03:23:18;;;;;;;;;;;;;;;19.12;87.89;94838.56;5136555;27;1047;-51
2022/08/20 03:25:45;;;;;;;;;;;;;;;19.05;88.00;94838.63;5136456;27;1107;-51
2022/08/20 03:28:11;;;;;;;;;;;;;;;19.05;88.00;94843.22;5136695;27;1015;-51
2022/08/20 03:30:37;;;;;;;;;;;;;;;19.07;88.86;94851.94;5136409;27;1094;-51
2022/08/20 03:33:03;;;;;;;;;;;;;;;19.09;88.09;94852.56;5136404;27;1262;-51
2022/08/20 03:35:30;;;;;;;;;;;;;;;18.84;87.97;94841.72;5136333;27;971;-51
2022/08/20 03:37:56;;;;;;;;;;;;;;;18.78;88.09;94837.97;5118083;27;1037;-51
2022/08/20 03:40:28;;;;;;;;;;;;;;;18.92;87.60;94844.16;5135986;27;2002;-51
2022/08/20 03:42:54;;;;;;;;;;;;;;;19.11;87.33;94851.28;5136250;27;1008;-49
2022/08/20 03:45:21;;;;;;;;;;;;;;;19.13;87.47;94856.47;5153994;27;1157;-49
2022/08/20 03:47:48;;;;;;;;;;;;;;;19.11;88.40;94869.41;5157080;27;995;-49
2022/08/20 03:50:14;;;;;;;;;;;;;;;18.99;87.18;94857.63;5156730;27;1208;-49
2022/08/20 03:52:40;;;;;;;;;;;;;;;18.90;87.50;94859.78;5156774;27;1027;-50
2022/08/20 03:55:07;;;;;;;;;;;;;;;18.86;87.92;94853.97;5156762;27;1023;-51
2022/08/20 03:57:34;;;;;;;;;;;;;;;18.85;88.83;94859.63;5156941;27;1027;-49
2022/08/20 04:00:01;;;;;;;;;;;;;;;19.10;87.96;94857.75;5156607;27;1987;-49
2022/08/20 04:02:27;;;;;;;;;;;;;;;19.23;87.74;94853.25;5156755;27;1063;-50
2022/08/20 04:04:54;;;;;;;;;;;;;;;19.23;87.30;94854.09;5156386;27;1024;-50
2022/08/20 04:07:24;;;;;;;;;;;;;;;19.21;88.31;94850.78;5156418;27;1039;-49
2022/08/20 04:09:51;;;;;;;;;;;;;;;19.28;87.78;94854.25;5156576;27;1047;-51
2022/08/20 04:12:17;;;;;;;;;;;;;;;19.37;87.85;94862.09;5156499;27;1039;-50
2022/08/20 04:14:43;;;;;;;;;;;;;;;19.14;87.79;94863.53;5156320;27;1033;-50
2022/08/20 04:17:11;;;;;;;;;;;;;;;19.02;88.51;94866.16;5156266;27;1044;-50
2022/08/20 04:19:37;;;;;;;;;;;;;;;19.05;88.57;94856.75;5156181;27;1955;-50
2022/08/20 04:22:04;;;;;;;;;;;;;;;19.22;87.78;94849.72;5155978;27;1079;-49
2022/08/20 04:24:30;;;;;;;;;;;;;;;19.34;88.19;94849.81;5156541;27;1019;-50
2022/08/20 04:26:57;;;;;;;;;;;;;;;19.48;87.27;94855.94;5156131;27;1056;-49
2022/08/20 04:29:24;;;;;;;;;;;;;;;19.59;87.48;94851.66;5155962;27;1020;-50
2022/08/20 04:31:51;;;;;;;;;;;;;;;19.67;87.49;94857.66;5156428;27;1035;-50
2022/08/20 04:34:18;;;;;;;;;;;;;;;19.65;87.11;94854.34;5156204;27;984;-50
2022/08/20 04:36:46;;;;;;;;;;;;;;;19.54;88.07;94852.34;5156015;27;1028;-49
2022/08/20 04:39:13;;;;;;;;;;;;;;;19.49;87.17;94853.00;5155975;27;1995;-49
2022/08/20 04:41:40;;;;;;;;;;;;;;;19.38;87.94;94852.94;5155885;27;952;-49
2022/08/20 04:44:07;;;;;;;;;;;;;;;19.53;88.20;94850.69;5148444;27;1157;-50
2022/08/20 04:46:33;;;;;;;;;;;;;;;19.68;87.80;94858.47;5134947;27;1043;-50
2022/08/20 04:49:02;;;;;;;;;;;;;;;19.84;87.56;94855.19;5134918;27;952;-49
2022/08/20 04:51:29;;;;;;;;;;;;;;;20.06;86.55;94865.56;5134385;27;967;-50
2022/08/20 04:53:56;;;;;;;;;;;;;;;20.19;86.85;94854.56;5135130;27;1011;-50
2022/08/20 04:56:24;;;;;;;;;;;;;;;20.24;86.35;94864.72;5134455;27;1257;-50
2022/08/20 04:58:51;;;;;;;;;;;;;;;20.31;86.87;94854.59;5134755;27;1989;-50
2022/08/20 05:01:17;;;;;;;;;;;;;;;20.41;85.96;94854.91;5134534;27;1859;-50
2022/08/20 05:03:46;;;;;;;;;;;;;;;20.57;86.86;94858.03;5134692;27;995;-50
2022/08/20 05:06:12;;;;;;;;;;;;;;;20.59;86.23;94854.03;5134674;27;965;-50
2022/08/20 05:08:38;;;;;;;;;;;;;;;20.67;85.96;94853.72;5134830;27;1040;-49
2022/08/20 05:11:05;;;;;;;;;;;;;;;20.84;84.79;94853.88;5134321;27;1100;-51
2022/08/20 05:13:31;;;;;;;;;;;;;;;20.90;84.22;94863.00;5134698;27;969;-50
2022/08/20 05:16:00;;;;;;;;;;;;;;;21.03;82.86;94859.25;5134493;27;944;-50
2022/08/20 05:18:26;;;;;;;;;;;;;;;21.14;81.58;94860.34;5134299;27;1176;-54
2022/08/20 05:20:52;;;;;;;;;;;;;;;21.29;81.46;94877.03;5134556;27;1996;-50
2022/08/20 05:23:19;;;;;;;;;;;;;;;21.46;82.31;94877.19;5134664;27;1011;-50
2022/08/20 05:25:48;;;;;;;;;;;;;;;21.56;81.54;94869.25;5134581;27;1008;-49
2022/08/20 05:28:19;;;;;;;;;;;;;;;21.67;81.81;94870.34;5134258;27;961;-50
2022/08/20 05:34:02;;;;;;;;;;;;;;;21.81;81.56;94870.91;5134556;27;969;-49
2022/08/20 05:36:28;;;;;;;;;;;;;;;21.86;81.61;94875.66;5134383;27;1072;-49
2022/08/20 05:38:54;;;;;;;;;;;;;;;21.91;79.12;94873.03;5134402;27;1906;-49
2022/08/20 05:41:20;;;;;;;;;;;;;;;22.01;80.42;94867.81;5134040;28;1062;-50
2022/08/20 05:43:46;;;;;;;;;;;;;;;22.10;79.89;94865.53;5138999;27;1212;-49
2022/08/20 05:46:15;;;;;;;;;;;;;;;22.15;81.44;94860.19;5136747;27;979;-49
2022/08/20 05:48:41;;;;;;;;;;;;;;;22.19;79.07;94851.31;5154989;27;976;-48
2022/08/20 05:51:07;;;;;;;;;;;;;;;22.22;79.22;94859.00;5154890;27;1032;-48
2022/08/20 05:53:33;;;;;;;;;;;;;;;22.34;79.41;94853.53;5154862;27;1145;-48
2022/08/20 05:56:00;;;;;;;;;;;;;;;22.40;77.14;94858.03;5154584;27;1249;-49
2022/08/20 05:58:28;;;;;;;;;;;;;;;22.53;79.13;94854.19;5154915;27;968;-49
2022/08/20 06:00:54;;;;;;;;;;;;;;;22.71;78.15;94855.06;5154779;27;1914;-49
2022/08/20 06:06:06;;;;;;;;;;;;;;;23.01;75.28;94841.13;5159023;27;960;-49
2022/08/20 06:08:33;;;;;;;;;;;;;;;23.11;74.86;94840.53;5158733;27;1024;-49
2022/08/20 06:10:59;;;;;;;;;;;;;;;23.07;73.65;94847.53;5159219;27;1022;-49
2022/08/20 06:13:27;;;;;;;;;;;;;;;23.15;75.01;94849.88;5158852;27;993;-49
2022/08/20 06:15:54;;;;;;;;;;;;;;;23.36;73.52;94845.56;5158863;27;1862;-49
2022/08/20 06:18:21;;;;;;;;;;;;;;;23.66;71.56;94844.41;5158677;27;962;-49
2022/08/20 06:20:47;;;;;;;;;;;;;;;23.88;70.75;94839.81;5158776;27;1914;-49
2022/08/20 06:23:13;;;;;;;;;;;;;;;24.03;67.53;94844.66;5158420;27;1078;-49
2022/08/20 06:25:39;;;;;;;;;;;;;;;24.07;69.04;94837.59;5140266;27;1030;-49
2022/08/20 06:28:05;;;;;;;;;;;;;;;24.20;68.86;94836.41;5158589;27;955;-49
2022/08/20 06:30:31;;;;;;;;;;;;;;;24.18;67.17;94833.09;5158580;27;1984;-49
2022/08/20 06:32:58;;;;;;;;;;;;;;;24.20;68.18;94830.13;5158353;27;1084;-49
2022/08/20 06:35:24;;;;;;;;;;;;;;;24.38;67.78;94826.22;5158491;27;1007;-49
2022/08/20 06:37:51;;;;;;;;;;;;;;;24.52;67.19;94828.34;5158196;27;1044;-49
2022/08/20 06:40:23;;;;;;;;;;;;;;;24.72;66.63;94833.22;5158475;27;1889;-49
2022/08/20 06:42:49;;;;;;;;;;;;;;;24.95;65.89;94828.53;5158362;27;1000;-49
2022/08/20 06:45:17;;;;;;;;;;;;;;;25.25;65.02;94829.88;5141074;27;1216;-49
2022/08/20 06:47:44;;;;;;;;;;;;;;;25.37;65.57;94827.81;5137324;27;1036;-49
2022/08/20 06:50:12;;;;;;;;;;;;;;;25.43;65.17;94821.28;5137375;27;1031;-49
2022/08/20 06:52:39;;;;;;;;;;;;;;;25.58;64.64;94825.22;5137288;27;1208;-49
2022/08/20 06:55:06;;;;;;;;;;;;;;;25.82;64.13;94822.91;5137532;27;1050;-49
2022/08/20 06:57:33;;;;;;;;;;;;;;;26.01;63.50;94829.63;5137546;27;1032;-49
2022/08/20 06:59:59;;;;;;;;;;;;;;;26.34;62.88;94832.25;5137268;27;1991;-49
2022/08/20 07:02:25;;;;;;;;;;;;;;;26.60;62.21;94834.00;5137592;27;1041;-49
2022/08/20 07:04:52;;;;;;;;;;;;;;;26.74;60.97;94833.50;5136977;27;1047;-49
2022/08/20 07:07:19;;;;;;;;;;;;;;;26.96;60.62;94830.50;5137022;27;1024;-49
2022/08/20 07:09:45;;;;;;;;;;;;;;;27.16;58.82;94825.03;5137154;27;1011;-49
2022/08/20 07:12:12;;;;;;;;;;;;;;;27.37;59.77;94825.09;5136975;27;1094;-49
2022/08/20 07:14:38;;;;;;;;;;;;;;;27.54;58.72;94819.31;5136330;27;1040;-49
2022/08/20 07:17:05;;;;;;;;;;;;;;;27.53;58.17;94820.44;5118810;27;1043;-49
2022/08/20 07:19:32;;;;;;;;;;;;;;;27.49;56.72;94830.28;5136577;27;1987;-49
2022/08/20 07:21:58;;;;;;;;;;;;;;;27.70;55.79;94826.44;5137140;27;981;-49
2022/08/20 07:24:24;;;;;;;;;;;;;;;27.89;55.87;94820.38;5136560;27;1095;-49
2022/08/20 07:26:50;;;;;;;;;;;;;;;27.95;54.63;94819.28;5136968;27;969;-49
2022/08/20 07:29:17;;;;;;;;;;;;;;;27.80;56.23;94811.88;5136493;27;1028;-49
2022/08/20 07:34:29;;;;;;;;;;;;;;;28.06;55.81;94822.81;5136712;27;1008;-49
2022/08/20 07:36:58;;;;;;;;;;;;;;;28.27;56.02;94815.31;5136808;27;956;-50
2022/08/20 07:39:24;;;;;;;;;;;;;;;28.38;56.23;94814.16;5136295;27;1914;-50
2022/08/20 07:42:01;;;;;;;;;;;;;;;28.17;56.59;94811.53;5136621;27;957;-50
2022/08/20 07:44:29;;;;;;;;;;;;;;;27.84;56.40;94818.44;5146612;27;1165;-49
2022/08/20 07:46:57;;;;;;;;;;;;;;;27.50;55.28;94819.03;5157077;27;1107;-49
2022/08/20 07:49:23;;;;;;;;;;;;;;;27.21;57.44;94819.56;5157139;27;1028;-49
2022/08/20 07:51:49;;;;;;;;;;;;;;;27.08;58.81;94823.66;5157108;27;1011;-49
2022/08/20 07:54:15;;;;;;;;;;;;;;;26.79;58.51;94828.03;5156598;27;1019;-48
2022/08/20 07:56:41;;;;;;;;;;;;;;;26.91;59.49;94817.63;5156751;27;1091;-49
2022/08/20 07:59:07;;;;;;;;;;;;;;;27.23;57.17;94817.38;5156467;27;2008;-49
2022/08/20 08:01:34;;;;;;;;;;;;;;;27.52;56.29;94807.78;5156790;27;1177;-49
2022/08/20 08:04:00;;;;;;;;;;;;;;;27.75;56.27;94803.63;5156744;27;1000;-53
2022/08/20 08:06:27;;;;;;;;;;;;;;;27.86;57.71;94805.25;5156741;27;956;-50
2022/08/20 08:08:53;;;;;;;;;;;;;;;27.97;55.00;94798.66;5156437;27;1079;-49
2022/08/20 08:11:19;;;;;;;;;;;;;;;27.83;56.70;94808.53;5156627;27;1038;-49
2022/08/20 08:13:46;;;;;;;;;;;;;;;27.66;55.75;94795.16;5156607;27;969;-49
2022/08/20 08:16:12;;;;;;;;;;;;;;;27.77;56.95;94794.00;5156321;27;1019;-50
2022/08/20 08:18:42;;;;;;;;;;;;;;;28.00;55.40;94791.78;5156718;27;1044;-49
2022/08/20 08:21:08;;;;;;;;;;;;;;;28.15;56.68;94791.75;5156277;27;1902;-50
2022/08/20 08:23:34;;;;;;;;;;;;;;;28.35;55.70;94790.00;5156332;27;1031;-50
2022/08/20 08:26:01;;;;;;;;;;;;;;;28.43;55.80;94783.91;5155069;27;1032;-50
2022/08/20 08:28:30;;;;;;;;;;;;;;;28.04;56.77;94787.38;5156744;27;1035;-49
2022/08/20 08:30:56;;;;;;;;;;;;;;;28.08;56.86;94784.88;5137623;27;1036;-50
2022/08/20 08:33:26;;;;;;;;;;;;;;;28.41;55.34;94772.38;5156285;27;968;-50
2022/08/20 08:35:57;;;;;;;;;;;;;;;28.57;56.32;94773.97;5137520;27;925;-51
2022/08/20 08:38:24;;;;;;;;;;;;;;;28.61;55.94;94772.31;5155961;27;1083;-50
2022/08/20 08:40:54;;;;;;;;;;;;;;;28.74;55.36;94775.50;5155823;27;1993;-50
2022/08/20 08:43:26;;;;;;;;;;;;;;;28.95;52.68;94768.78;5155034;27;1314;-50
2022/08/20 08:45:58;;;;;;;;;;;;;;;28.60;53.32;94772.56;5135249;27;1020;-50
2022/08/20 08:48:28;;;;;;;;;;;;;;;28.23;55.53;94766.41;5135268;27;968;-50
2022/08/20 08:50:57;;;;;;;;;;;;;;;28.50;55.95;94764.38;5135036;27;1048;-50
2022/08/20 08:53:25;;;;;;;;;;;;;;;28.31;53.89;94755.94;5116770;27;1047;-50
2022/08/20 08:55:51;;;;;;;;;;;;;;;28.42;55.53;94746.53;5134579;27;1108;-50
2022/08/20 08:58:17;;;;;;;;;;;;;;;28.49;56.51;94746.22;5134827;27;1020;-50
2022/08/20 09:00:44;;;;;;;;;;;;;;;28.76;54.80;94741.13;5134675;27;1906;-50
2022/08/20 09:03:15;;;;;;;;;;;;;;;29.13;54.51;94744.44;5134938;27;1016;-50
2022/08/20 09:05:47;;;;;;;;;;;;;;;29.39;54.04;94736.78;5134668;27;1012;-50
2022/08/20 09:08:15;;;;;;;;;;;;;;;29.26;54.98;94743.78;5134645;27;1040;-50
2022/08/20 09:10:41;;;;;;;;;;;;;;;29.42;53.84;94746.38;5134553;27;1036;-50
2022/08/20 09:13:07;;;;;;;;;;;;;;;29.62;53.55;94737.94;5131110;27;1311;-50
2022/08/20 09:15:34;;;;;;;;;;;;;;;29.10;54.54;94731.22;5133996;27;1063;-50
2022/08/20 09:18:00;;;;;;;;;;;;;;;29.13;54.82;94730.69;5133975;27;1128;-49
2022/08/20 09:20:26;;;;;;;;;;;;;;;29.48;54.79;94729.53;5133358;27;2022;-50
2022/08/20 09:22:52;;;;;;;;;;;;;;;29.44;53.86;94728.47;5134017;27;1040;-50
2022/08/20 09:25:18;;;;;;;;;;;;;;;29.05;55.67;94732.09;5133870;27;1068;-50
2022/08/20 09:27:44;;;;;;;;;;;;;;;28.84;56.00;94728.69;5115698;27;1028;-51
2022/08/20 09:30:11;;;;;;;;;;;;;;;28.90;55.18;94721.22;5133837;27;975;-50
2022/08/20 09:32:37;;;;;;;;;;;;;;;29.22;54.24;94726.22;5133689;27;981;-50
2022/08/20 09:35:03;;;;;;;;;;;;;;;29.43;54.11;94728.78;5114838;28;1001;-50
2022/08/20 09:37:31;;;;;;;;;;;;;;;29.59;54.77;94724.72;5114789;28;1048;-50
2022/08/20 09:39:57;;;;;;;;;;;;;;;29.40;55.31;94719.13;5133568;27;1906;-50
2022/08/20 09:42:25;;;;;;;;;;;;;;;29.52;54.05;94724.25;5114409;28;1575;-50
2022/08/20 09:44:51;;;;;;;;;;;;;;;29.92;54.78;94723.03;5115464;28;1228;-50
2022/08/20 09:47:18;;;;;;;;;;;;;;;29.75;54.91;94711.66;5133701;28;1028;-50
2022/08/20 09:49:45;;;;;;;;;;;;;;;29.49;55.16;94713.84;5133226;28;1052;-50
2022/08/20 09:52:22;;;;;;;;;;;;;;;29.37;55.35;94717.81;5133741;28;1055;-50
2022/08/20 09:54:50;;;;;;;;;;;;;;;29.35;55.68;94713.72;5133634;28;1075;-50
2022/08/20 09:57:16;;;;;;;;;;;;;;;29.36;56.17;94705.13;5114157;28;1091;-50
2022/08/20 09:59:45;;;;;;;;;;;;;;;29.36;56.52;94704.31;5112846;28;1906;-50
2022/08/20 10:02:11;;;;;;;;;;;;;;;29.38;56.93;94696.59;5094130;28;1527;-50
2022/08/20 10:04:37;;;;;;;;;;;;;;;29.58;56.72;94690.88;5112765;28;1032;-50
2022/08/20 10:07:05;;;;;;;;;;;;;;;29.99;55.79;94686.81;5112728;28;960;-50
2022/08/20 10:09:32;;;;;;;;;;;;;;;29.86;56.49;94682.88;5112909;28;1052;-50
2022/08/20 10:11:58;;;;;;;;;;;;;;;29.71;56.93;94675.59;5094458;28;1096;-50
2022/08/20 10:14:24;;;;;;;;;;;;;;;29.66;57.28;94675.63;5112947;28;1083;-50
2022/08/20 10:16:58;;;;;;;;;;;;;;;29.75;56.61;94671.16;5094776;28;1862;-50
2022/08/20 10:19:24;;;;;;;;;;;;;;;29.91;56.65;94676.47;5112446;28;1977;-50
2022/08/20 10:21:51;;;;;;;;;;;;;;;29.96;58.06;94671.72;5094349;28;970;-50
2022/08/20 10:24:17;;;;;;;;;;;;;;;30.02;55.58;94672.47;5112783;28;1094;-50
2022/08/20 10:26:44;;;;;;;;;;;;;;;30.31;55.33;94674.28;5112437;28;1114;-50
2022/08/20 10:29:10;;;;;;;;;;;;;;;30.40;54.05;94677.22;5094865;28;1096;-50
2022/08/20 10:31:36;;;;;;;;;;;;;;;30.38;54.95;94662.94;5112934;28;1130;-50
2022/08/20 10:34:03;;;;;;;;;;;;;;;30.51;54.25;94667.69;5112713;28;1080;-50
2022/08/20 10:36:29;;;;;;;;;;;;;;;30.59;53.81;94657.91;5112438;28;1114;-50
2022/08/20 10:38:55;;;;;;;;;;;;;;;30.70;52.79;94660.22;5111922;28;2233;-50
2022/08/20 10:41:21;;;;;;;;;;;;;;;30.78;51.80;94660.66;5112409;28;1076;-50
2022/08/20 10:43:47;;;;;;;;;;;;;;;30.53;52.82;94646.97;5094329;28;1166;-51
2022/08/20 10:46:13;;;;;;;;;;;;;;;30.29;49.28;94644.25;5112542;28;1028;-50
2022/08/20 10:48:40;;;;;;;;;;;;;;;30.12;49.05;94643.94;5112935;28;950;-50
2022/08/20 10:51:06;;;;;;;;;;;;;;;30.03;50.20;94638.28;5116468;28;1051;-50
2022/08/20 10:53:32;;;;;;;;;;;;;;;29.94;49.78;94637.31;5116201;28;1036;-50
2022/08/20 10:55:58;;;;;;;;;;;;;;;29.83;50.98;94625.59;5116358;28;1250;-50
2022/08/20 10:58:25;;;;;;;;;;;;;;;29.81;49.92;94627.81;5116312;28;1273;-50
2022/08/20 11:00:52;;;;;;;;;;;;;;;29.72;51.34;94630.38;5098072;28;1906;-50
2022/08/20 11:03:18;;;;;;;;;;;;;;;29.70;51.44;94629.03;5115653;28;1213;-50
2022/08/20 11:05:45;;;;;;;;;;;;;;;29.74;49.66;94627.38;5116026;28;1049;-50
2022/08/20 11:08:11;;;;;;;;;;;;;;;29.78;50.35;94623.75;5115899;28;948;-50
2022/08/20 11:10:38;;;;;;;;;;;;;;;29.77;50.75;94616.56;5098257;28;1091;-50
2022/08/20 11:13:05;;;;;;;;;;;;;;;29.77;50.48;94613.81;5115374;28;972;-50
2022/08/20 11:15:32;;;;;;;;;;;;;;;29.76;50.14;94614.91;5115656;28;1110;-50
2022/08/20 11:17:58;;;;;;;;;;;;;;;29.74;50.07;94619.09;5097690;28;1044;-50
2022/08/20 11:20:25;;;;;;;;;;;;;;;29.69;50.08;94611.69;5116139;28;1971;-52
2022/08/20 11:22:52;;;;;;;;;;;;;;;29.69;49.74;94614.44;5115054;28;1024;-51
2022/08/20 11:25:18;;;;;;;;;;;;;;;29.69;50.05;94619.97;5115737;28;1032;-51
2022/08/20 11:27:45;;;;;;;;;;;;;;;29.64;49.14;94617.25;5096970;28;1083;-51
2022/08/20 11:30:13;;;;;;;;;;;;;;;29.63;48.73;94601.03;5115369;28;1052;-51
2022/08/20 11:32:39;;;;;;;;;;;;;;;29.57;51.37;94592.00;5115110;28;996;-51
2022/08/20 11:35:06;;;;;;;;;;;;;;;29.51;50.43;94587.69;5115936;28;1044;-51
2022/08/20 11:37:33;;;;;;;;;;;;;;;29.55;50.01;94591.47;5097586;28;1040;-51
2022/08/20 11:39:59;;;;;;;;;;;;;;;29.64;49.12;94597.16;5115868;28;1995;-51
2022/08/20 11:42:25;;;;;;;;;;;;;;;29.74;48.16;94589.59;5097429;28;1040;-51
2022/08/20 11:44:51;;;;;;;;;;;;;;;29.80;46.61;94592.31;5097294;28;1165;-65
2022/08/20 11:47:21;;;;;;;;;;;;;;;29.81;46.87;94585.69;5115116;28;1007;-49
2022/08/20 11:49:55;;;;;;;;;;;;;;;29.87;45.69;94574.28;5114963;28;1027;-50
2022/08/20 11:52:21;;;;;;;;;;;;;;;29.95;45.34;94581.06;5115414;28;1061;-49
2022/08/20 11:54:47;;;;;;;;;;;;;;;30.01;45.63;94581.81;5115260;28;1049;-49
2022/08/20 11:57:18;;;;;;;;;;;;;;;30.02;45.19;94584.28;5114399;27;1175;-49
2022/08/20 11:59:47;;;;;;;;;;;;;;;30.04;44.62;94581.22;5135476;27;1901;-50
2022/08/20 12:02:13;;;;;;;;;;;;;;;30.10;45.68;94611.16;5135810;27;971;-50
2022/08/20 12:04:39;;;;;;;;;;;;;;;30.13;45.76;94640.09;5116302;27;1277;-49
2022/08/20 12:07:09;;;;;;;;;;;;;;;30.11;46.24;94640.38;5135848;27;1027;-50
2022/08/20 12:09:35;;;;;;;;;;;;;;;30.07;44.66;94642.09;5135498;27;1032;-49
2022/08/20 12:12:02;;;;;;;;;;;;;;;30.02;44.58;94647.66;5117281;27;954;-49
2022/08/20 12:14:28;;;;;;;;;;;;;;;29.92;47.28;94653.31;5116969;27;1024;-49
2022/08/20 12:16:54;;;;;;;;;;;;;;;29.77;45.37;94654.34;5117221;27;1021;-50
2022/08/20 12:19:20;;;;;;;;;;;;;;;29.77;46.03;94652.38;5135031;27;1996;-49
2022/08/20 12:21:46;;;;;;;;;;;;;;;29.77;45.96;94660.66;5135637;27;1024;-49
2022/08/20 12:24:12;;;;;;;;;;;;;;;29.73;45.27;94659.59;5135100;27;1024;-49
2022/08/20 12:26:38;;;;;;;;;;;;;;;29.70;46.22;94660.16;5135327;27;1020;-49
2022/08/20 12:29:04;;;;;;;;;;;;;;;29.66;47.00;94663.81;5134796;27;1096;-49
2022/08/20 12:31:31;;;;;;;;;;;;;;;29.58;48.42;94662.50;5135111;27;984;-49
2022/08/20 12:33:57;;;;;;;;;;;;;;;29.48;48.88;94660.69;5134614;27;991;-49
2022/08/20 12:36:23;;;;;;;;;;;;;;;29.38;49.43;94664.34;5134652;27;1053;-49
2022/08/20 12:38:50;;;;;;;;;;;;;;;29.31;49.47;94669.41;5116635;27;1141;-50
2022/08/20 12:41:17;;;;;;;;;;;;;;;29.17;53.01;94658.25;5134612;27;1989;-49
2022/08/20 12:43:43;;;;;;;;;;;;;;;29.07;52.83;94650.06;5134426;27;1216;-49
2022/08/20 12:46:09;;;;;;;;;;;;;;;28.96;52.14;94638.34;5135367;27;988;-49
2022/08/20 12:48:35;;;;;;;;;;;;;;;28.80;53.75;94632.16;5115278;27;1118;-49
2022/08/20 12:51:01;;;;;;;;;;;;;;;28.66;55.54;94635.84;5116734;27;1104;-49
2022/08/20 12:53:27;;;;;;;;;;;;;;;28.60;55.74;94638.63;5134406;27;1099;-50
2022/08/20 12:55:53;;;;;;;;;;;;;;;28.56;57.20;94628.50;5134293;27;1657;-49
2022/08/20 12:58:19;;;;;;;;;;;;;;;28.46;53.08;94628.53;5134145;27;1020;-49
2022/08/20 13:00:46;;;;;;;;;;;;;;;28.36;52.27;94621.19;5134738;27;1906;-50
2022/08/20 13:03:12;;;;;;;;;;;;;;;28.33;51.05;94627.28;5134641;27;913;-49
2022/08/20 13:05:39;;;;;;;;;;;;;;;28.32;53.11;94611.88;5134394;27;1036;-49
2022/08/20 13:08:09;;;;;;;;;;;;;;;28.29;56.56;94585.81;5134877;27;960;-50
2022/08/20 13:10:36;;;;;;;;;;;;;;;28.09;58.74;94569.47;5115930;27;1044;-54